createdAt,value
2022-12-11T00:00:45.790Z,-4.11
2022-12-11T00:03:35.185Z,-3.93
2022-12-11T00:06:07.629Z,-3.91
2022-12-11T00:08:37.423Z,-3.93
2022-12-11T00:11:10.289Z,-3.85
2022-12-11T00:13:39.647Z,-3.94
2022-12-11T00:16:09.214Z,-3.86
2022-12-11T00:18:38.904Z,-3.92
2022-12-11T00:21:12.097Z,-3.88
2022-12-11T00:23:42.236Z,-3.74
2022-12-11T00:26:15.516Z,-3.57
2022-12-11T00:28:46.077Z,-3.53
2022-12-11T00:31:17.284Z,-3.39
2022-12-11T00:33:49.090Z,-3.40
2022-12-11T00:36:20.449Z,-3.28
2022-12-11T00:38:50.439Z,-3.39
2022-12-11T00:41:21.484Z,-3.25
2022-12-11T00:43:51.328Z,-3.35
2022-12-11T00:46:20.622Z,-3.25
2022-12-11T00:48:50.191Z,-3.21
2022-12-11T00:51:19.826Z,-3.28
2022-12-11T00:53:49.329Z,-3.07
2022-12-11T00:56:23.086Z,-3.04
2022-12-11T00:58:53.019Z,-2.94
2022-12-11T01:01:24.109Z,-2.76
2022-12-11T01:03:55.169Z,-2.77
2022-12-11T01:06:26.283Z,-3.13
2022-12-11T01:09:11.214Z,-2.91
2022-12-11T01:11:43.220Z,-3.33
2022-12-11T01:14:14.211Z,-3.06
2022-12-11T01:16:43.410Z,-2.98
2022-12-11T01:19:13.003Z,-2.84
2022-12-11T01:21:42.308Z,-2.95
2022-12-11T01:24:11.718Z,-2.88
2022-12-11T01:26:42.374Z,-2.68
2022-12-11T01:29:12.248Z,-2.80
2022-12-11T01:31:41.343Z,-2.72
2022-12-11T01:34:10.651Z,-2.66
2022-12-11T01:36:39.822Z,-2.82
2022-12-11T01:39:09.307Z,-2.76
2022-12-11T01:41:38.656Z,-2.83
2022-12-11T01:44:25.185Z,-2.70
2022-12-11T01:46:54.484Z,-2.68
2022-12-11T01:49:27.327Z,-2.54
2022-12-11T01:52:02.025Z,-2.47
2022-12-11T01:54:32.672Z,-2.82
2022-12-11T01:57:05.391Z,-2.73
2022-12-11T01:59:39.218Z,-2.77
2022-12-11T02:02:13.362Z,-2.70
2022-12-11T02:04:45.647Z,-2.73
2022-12-11T02:07:15.068Z,-2.53
2022-12-11T02:09:47.412Z,-2.51
2022-12-11T02:12:25.961Z,-2.28
2022-12-11T02:15:07.604Z,-2.46
2022-12-11T02:17:42.814Z,-2.51
2022-12-11T02:20:18.911Z,-2.57
2022-12-11T02:23:10.476Z,-2.56
2022-12-11T02:25:49.594Z,-2.33
2022-12-11T02:28:26.499Z,-2.19
2022-12-11T02:31:02.208Z,-2.18
2022-12-11T02:33:38.835Z,-2.27
2022-12-11T02:36:10.644Z,-2.08
2022-12-11T02:38:43.368Z,-1.95
2022-12-11T02:41:13.811Z,-2.11
2022-12-11T02:43:45.734Z,-1.91
2022-12-11T02:46:16.515Z,-1.93
2022-12-11T02:48:47.696Z,-1.94
2022-12-11T02:51:19.808Z,-1.62
2022-12-11T02:53:50.701Z,-1.81
2022-12-11T02:56:25.460Z,-1.90
2022-12-11T02:59:00.839Z,-1.91
2022-12-11T03:01:30.216Z,-1.74
2022-12-11T03:04:00.205Z,-1.67
2022-12-11T03:06:36.203Z,-1.83
2022-12-11T03:09:06.159Z,-1.79
2022-12-11T03:11:35.435Z,-1.76
2022-12-11T03:14:06.430Z,-1.73
2022-12-11T03:16:38.593Z,-1.53
2022-12-11T03:19:18.449Z,-1.43
2022-12-11T03:21:54.508Z,-1.44
2022-12-11T03:24:25.754Z,-1.43
2022-12-11T03:27:01.132Z,-1.37
2022-12-11T03:29:37.728Z,-1.29
2022-12-11T03:36:34.796Z,-1.30
2022-12-11T03:39:08.088Z,-1.27
2022-12-11T03:41:40.975Z,-1.26
2022-12-11T03:44:10.936Z,-1.16
2022-12-11T03:46:45.727Z,-1.19
2022-12-11T03:49:18.538Z,-1.23
2022-12-11T03:51:51.818Z,-1.23
2022-12-11T03:54:21.546Z,-0.91
2022-12-11T03:56:52.774Z,-0.88
2022-12-11T03:59:21.856Z,-0.90
2022-12-11T04:01:52.769Z,-0.89
2022-12-11T04:04:22.034Z,-1.13
2022-12-11T04:06:51.510Z,-0.98
2022-12-11T04:09:20.557Z,-1.08
2022-12-11T04:11:49.885Z,-1.22
2022-12-11T04:14:36.288Z,-1.46
2022-12-11T04:17:07.236Z,-1.41
2022-12-11T04:19:53.899Z,-1.43
2022-12-11T04:22:40.766Z,-1.45
2022-12-11T04:25:10.619Z,-1.37
2022-12-11T04:27:56.771Z,-1.25
2022-12-11T04:30:33.800Z,-1.30
2022-12-11T04:33:06.006Z,-1.28
2022-12-11T04:35:35.353Z,-1.17
2022-12-11T04:38:04.719Z,-1.25
2022-12-11T04:40:33.811Z,-1.15
2022-12-11T04:43:03.229Z,-1.04
2022-12-11T04:45:32.318Z,-0.84
2022-12-11T04:48:01.688Z,-0.82
2022-12-11T04:50:32.243Z,-0.68
2022-12-11T04:53:01.712Z,-0.69
2022-12-11T04:55:30.835Z,-0.69
2022-12-11T04:58:00.159Z,-0.79
2022-12-11T05:00:29.213Z,-0.77
2022-12-11T05:02:58.602Z,-0.89
2022-12-11T05:05:27.723Z,-0.78
2022-12-11T05:07:58.592Z,-0.71
2022-12-11T05:10:27.623Z,-0.70
2022-12-11T05:12:56.903Z,-0.68
2022-12-11T05:15:25.996Z,-0.71
2022-12-11T05:17:55.357Z,-0.77
2022-12-11T05:20:24.744Z,-0.69
2022-12-11T05:22:54.107Z,-0.61
2022-12-11T05:25:24.515Z,-0.52
2022-12-11T05:27:53.982Z,-0.56
2022-12-11T05:30:23.214Z,-0.42
2022-12-11T05:32:52.585Z,-0.51
2022-12-11T05:35:21.734Z,-0.54
2022-12-11T05:37:51.092Z,-0.42
2022-12-11T05:40:20.276Z,-0.38
2022-12-11T05:42:51.879Z,-0.42
2022-12-11T05:45:21.021Z,-0.36
2022-12-11T05:47:50.671Z,-0.12
2022-12-11T05:50:19.746Z,-0.28
2022-12-11T05:52:49.295Z,-0.44
2022-12-11T05:55:18.580Z,-0.48
2022-12-11T05:57:47.884Z,-0.61
2022-12-11T06:00:18.467Z,-0.65
2022-12-11T06:02:47.907Z,-0.67
2022-12-11T06:05:17.278Z,-0.57
2022-12-11T06:07:46.691Z,-0.50
2022-12-11T06:10:15.765Z,-0.43
2022-12-11T06:12:45.160Z,-0.43
2022-12-11T06:15:14.209Z,-0.24
2022-12-11T06:17:44.917Z,-0.11
2022-12-11T06:20:14.118Z,-0.05
2022-12-11T06:22:43.695Z,0.06
2022-12-11T06:25:13.354Z,0.04
2022-12-11T06:27:43.020Z,0.04
2022-12-11T06:30:13.077Z,0.02
2022-12-11T06:32:44.021Z,0.05
2022-12-11T06:35:13.830Z,0.08
2022-12-11T06:37:43.395Z,0.08
2022-12-11T06:40:13.705Z,0.04
2022-12-11T06:42:43.161Z,0.02
2022-12-11T06:45:13.008Z,-0.05
2022-12-11T06:47:43.893Z,0.05
2022-12-11T06:50:13.059Z,-0.01
2022-12-11T06:52:42.577Z,-0.09
2022-12-11T06:55:12.101Z,0.10
2022-12-11T06:57:41.583Z,0.26
2022-12-11T07:00:11.992Z,0.28
2022-12-11T07:02:41.664Z,0.41
2022-12-11T07:05:12.685Z,0.43
2022-12-11T07:07:42.659Z,0.38
2022-12-11T07:10:12.074Z,0.50
2022-12-11T07:12:41.678Z,0.37
2022-12-11T07:15:11.832Z,0.23
2022-12-11T07:17:41.407Z,0.32
2022-12-11T07:20:12.766Z,0.40
2022-12-11T07:22:46.444Z,0.45
2022-12-11T07:25:16.364Z,0.53
2022-12-11T07:27:45.740Z,0.42
2022-12-11T07:30:15.646Z,0.21
2022-12-11T07:32:45.157Z,0.43
2022-12-11T07:35:15.796Z,0.37
2022-12-11T07:37:45.983Z,0.42
2022-12-11T07:40:15.249Z,0.54
2022-12-11T07:42:46.434Z,0.43
2022-12-11T07:45:15.662Z,0.49
2022-12-11T07:47:44.908Z,0.42
2022-12-11T07:50:15.689Z,0.45
2022-12-11T07:52:45.121Z,0.25
2022-12-11T07:55:14.660Z,0.34
2022-12-11T07:57:44.098Z,0.58
2022-12-11T08:00:14.052Z,0.56
2022-12-11T08:02:43.861Z,0.54
2022-12-11T08:05:14.491Z,0.62
2022-12-11T08:07:44.027Z,0.54
2022-12-11T08:10:13.289Z,0.59
2022-12-11T08:12:42.997Z,0.83
2022-12-11T08:15:13.036Z,0.95
2022-12-11T08:17:42.532Z,0.83
2022-12-11T08:20:12.327Z,0.85
2022-12-11T08:22:43.306Z,0.85
2022-12-11T08:25:12.765Z,1.01
2022-12-11T08:27:42.693Z,0.81
2022-12-11T08:30:12.789Z,1.09
2022-12-11T08:32:42.270Z,1.18
2022-12-11T08:35:11.717Z,0.88
2022-12-11T08:37:42.718Z,0.80
2022-12-11T08:40:14.287Z,0.70
2022-12-11T08:42:43.712Z,0.63
2022-12-11T08:45:13.335Z,0.47
2022-12-11T08:47:43.142Z,0.14
2022-12-11T08:50:12.472Z,0.09
2022-12-11T08:52:43.245Z,0.07
2022-12-11T08:55:13.125Z,0.28
2022-12-11T08:57:43.196Z,0.56
2022-12-11T09:00:15.362Z,0.78
2022-12-11T09:02:45.037Z,0.79
2022-12-11T09:05:14.305Z,0.26
2022-12-11T09:07:45.722Z,0.25
2022-12-11T09:10:14.750Z,0.52
2022-12-11T09:12:44.195Z,0.52
2022-12-11T09:15:13.846Z,0.49
2022-12-11T09:17:43.346Z,0.41
2022-12-11T09:20:13.143Z,0.47
2022-12-11T09:22:43.121Z,0.50
2022-12-11T09:25:13.877Z,0.61
2022-12-11T09:27:43.532Z,0.54
2022-12-11T09:30:13.238Z,0.60
2022-12-11T09:32:42.519Z,0.49
2022-12-11T09:35:12.487Z,0.64
2022-12-11T09:37:42.285Z,0.77
2022-12-11T09:40:14.907Z,0.63
2022-12-11T09:42:54.353Z,0.72
2022-12-11T09:45:23.719Z,0.80
2022-12-11T09:47:56.510Z,0.86
2022-12-11T09:50:28.198Z,0.93
2022-12-11T09:53:08.955Z,1.11
2022-12-11T09:55:49.149Z,1.16
2022-12-11T09:58:29.068Z,1.11
2022-12-11T10:01:04.798Z,1.00
2022-12-11T10:03:58.524Z,1.00
2022-12-11T10:06:34.365Z,1.34
2022-12-11T10:09:13.366Z,1.20
2022-12-11T10:11:57.572Z,1.30
2022-12-11T10:14:37.656Z,1.22
2022-12-11T10:17:13.580Z,1.12
2022-12-11T10:19:44.148Z,1.20
2022-12-11T10:22:20.214Z,1.29
2022-12-11T10:25:12.807Z,1.40
2022-12-11T10:27:44.859Z,1.37
2022-12-11T10:30:18.730Z,1.34
2022-12-11T10:32:54.177Z,1.38
2022-12-11T10:35:34.819Z,1.47
2022-12-11T10:38:16.212Z,1.41
2022-12-11T10:40:47.784Z,1.29
2022-12-11T10:43:18.628Z,1.46
2022-12-11T10:45:55.543Z,1.68
2022-12-11T10:48:25.723Z,1.72
2022-12-11T10:51:01.192Z,1.68
2022-12-11T10:53:30.659Z,1.63
2022-12-11T10:56:00.980Z,1.68
2022-12-11T10:58:34.373Z,1.66
2022-12-11T11:01:10.963Z,1.82
2022-12-11T11:03:54.726Z,1.79
2022-12-11T11:06:25.850Z,1.68
2022-12-11T11:08:58.281Z,1.99
2022-12-11T11:11:33.881Z,2.17
2022-12-11T11:14:16.873Z,2.27
2022-12-11T11:16:48.764Z,1.93
2022-12-11T11:19:25.571Z,2.28
2022-12-11T11:21:57.667Z,2.59
2022-12-11T11:24:31.076Z,2.54
2022-12-11T11:27:15.969Z,2.57
2022-12-11T11:29:51.678Z,2.75
2022-12-11T11:32:24.888Z,2.77
2022-12-11T11:34:54.038Z,2.78
2022-12-11T11:37:28.534Z,2.78
2022-12-11T11:40:04.391Z,3.02
2022-12-11T11:42:44.197Z,2.50
2022-12-11T11:45:19.240Z,2.74
2022-12-11T11:47:59.717Z,2.77
2022-12-11T11:50:34.873Z,2.74
2022-12-11T11:53:11.613Z,2.41
2022-12-11T11:55:47.911Z,2.78
2022-12-11T11:58:22.975Z,2.70
2022-12-11T12:00:55.818Z,2.84
2022-12-11T12:03:26.767Z,2.91
2022-12-11T12:06:00.953Z,2.62
2022-12-11T12:08:45.544Z,2.77
2022-12-11T12:11:26.049Z,2.47
2022-12-11T12:14:22.766Z,2.93
2022-12-11T12:17:07.675Z,2.88
2022-12-11T12:19:49.175Z,2.57
2022-12-11T12:22:32.617Z,2.83
2022-12-11T12:25:12.141Z,2.87
2022-12-11T12:27:52.590Z,2.67
2022-12-11T12:30:24.075Z,2.46
2022-12-11T12:33:16.456Z,2.71
2022-12-11T12:35:55.194Z,2.80
2022-12-11T12:38:34.340Z,2.48
2022-12-11T12:41:15.985Z,2.76
2022-12-11T12:44:11.253Z,2.76
2022-12-11T12:46:54.349Z,2.84
2022-12-11T12:49:36.912Z,2.55
2022-12-11T12:52:08.455Z,2.77
2022-12-11T12:54:38.736Z,2.88
2022-12-11T12:57:08.551Z,2.90
2022-12-11T12:59:37.599Z,2.63
2022-12-11T13:02:15.251Z,2.78
2022-12-11T13:04:56.929Z,2.29
2022-12-11T13:07:30.786Z,2.55
2022-12-11T13:10:08.649Z,2.47
2022-12-11T13:12:46.682Z,2.39
2022-12-11T13:15:36.007Z,2.25
2022-12-11T13:18:27.213Z,2.29
2022-12-11T13:20:57.714Z,2.31
2022-12-11T13:23:31.147Z,2.44
2022-12-11T13:26:02.105Z,2.50
2022-12-11T13:28:34.983Z,2.49
2022-12-11T13:31:28.391Z,2.21
2022-12-11T13:33:59.624Z,2.24
2022-12-11T13:36:36.235Z,2.40
2022-12-11T13:39:10.975Z,1.97
2022-12-11T13:41:41.449Z,2.36
2022-12-11T13:44:21.196Z,2.29
2022-12-11T13:46:53.264Z,2.29
2022-12-11T13:49:26.831Z,2.37
2022-12-11T13:52:01.991Z,2.41
2022-12-11T13:54:32.891Z,2.41
2022-12-11T13:57:05.223Z,2.29
2022-12-11T13:59:36.906Z,2.37
2022-12-11T14:02:15.382Z,2.29
2022-12-11T14:04:45.297Z,2.17
2022-12-11T14:07:21.511Z,2.11
2022-12-11T14:09:51.070Z,2.21
2022-12-11T14:12:22.944Z,2.04
2022-12-11T14:14:57.127Z,2.29
2022-12-11T14:17:29.157Z,2.09
2022-12-11T14:20:01.763Z,2.16
2022-12-11T14:22:32.735Z,1.88
2022-12-11T14:25:04.154Z,1.96
2022-12-11T14:27:33.260Z,1.85
2022-12-11T14:30:12.742Z,1.85
2022-12-11T14:32:46.149Z,1.97
2022-12-11T14:35:25.339Z,1.93
2022-12-11T14:37:57.403Z,2.09
2022-12-11T14:40:29.897Z,2.05
2022-12-11T14:43:03.231Z,2.08
2022-12-11T14:45:35.675Z,2.05
2022-12-11T14:48:12.006Z,1.97
2022-12-11T14:50:47.449Z,2.03
2022-12-11T14:53:23.060Z,2.00
2022-12-11T14:55:53.718Z,1.95
2022-12-11T14:58:26.595Z,2.10
2022-12-11T15:01:00.593Z,2.09
2022-12-11T15:03:34.418Z,2.29
2022-12-11T15:06:22.264Z,2.25
2022-12-11T15:08:53.375Z,2.32
2022-12-11T15:11:25.030Z,2.31
2022-12-11T15:13:56.866Z,2.30
2022-12-11T15:16:29.295Z,1.99
2022-12-11T15:18:59.007Z,1.97
2022-12-11T15:21:32.149Z,2.19
2022-12-11T15:24:05.024Z,2.21
2022-12-11T15:26:36.861Z,2.25
2022-12-11T15:29:08.243Z,2.20
2022-12-11T15:31:37.710Z,2.22
2022-12-11T15:34:23.020Z,2.12
2022-12-11T15:36:52.723Z,2.18
2022-12-11T15:39:23.836Z,2.20
2022-12-11T15:41:54.767Z,2.18
2022-12-11T15:44:25.026Z,2.40
2022-12-11T15:46:54.534Z,2.27
2022-12-11T15:49:24.754Z,2.42
2022-12-11T15:51:54.701Z,2.34
2022-12-11T15:54:25.302Z,2.28
2022-12-11T15:56:54.590Z,2.43
2022-12-11T15:59:23.945Z,2.33
2022-12-11T16:01:53.488Z,2.34
2022-12-11T16:04:22.619Z,2.39
2022-12-11T16:06:52.246Z,2.52
2022-12-11T16:09:21.304Z,2.46
2022-12-11T16:11:52.024Z,2.45
2022-12-11T16:14:21.217Z,2.43
2022-12-11T16:16:50.544Z,2.35
2022-12-11T16:19:19.890Z,2.38
2022-12-11T16:21:49.482Z,2.35
2022-12-11T16:24:19.049Z,2.49
2022-12-11T16:26:48.850Z,2.50
2022-12-11T16:29:19.682Z,2.44
2022-12-11T16:31:49.279Z,2.37
2022-12-11T16:34:18.778Z,2.34
2022-12-11T16:36:48.328Z,2.35
2022-12-11T16:39:17.512Z,2.41
2022-12-11T16:41:47.108Z,2.40
2022-12-11T16:44:20.022Z,2.37
2022-12-11T16:46:49.750Z,2.52
2022-12-11T16:49:19.427Z,2.51
2022-12-11T16:51:49.747Z,2.47
2022-12-11T16:54:19.445Z,2.48
2022-12-11T16:56:48.991Z,2.41
2022-12-11T16:59:19.742Z,2.45
2022-12-11T17:01:50.658Z,2.46
2022-12-11T17:04:20.044Z,2.43
2022-12-11T17:06:50.367Z,2.43
2022-12-11T17:09:19.546Z,2.56
2022-12-11T17:11:49.222Z,2.55
2022-12-11T17:14:20.435Z,2.66
2022-12-11T17:16:50.066Z,2.59
2022-12-11T17:19:19.828Z,2.67
2022-12-11T17:21:51.733Z,2.68
2022-12-11T17:24:21.417Z,2.65
2022-12-11T17:26:50.945Z,2.74
2022-12-11T17:29:22.245Z,2.82
2022-12-11T17:31:52.015Z,2.87
2022-12-11T17:34:21.126Z,2.76
2022-12-11T17:36:51.421Z,2.83
2022-12-11T17:39:20.431Z,2.78
2022-12-11T17:41:49.934Z,2.80
2022-12-11T17:44:20.536Z,2.89
2022-12-11T17:46:49.877Z,2.67
2022-12-11T17:49:19.311Z,2.77
2022-12-11T17:51:49.159Z,2.77
2022-12-11T17:54:18.372Z,2.73
2022-12-11T17:56:47.779Z,2.76
2022-12-11T17:59:17.430Z,2.93
2022-12-11T18:01:49.246Z,2.81
2022-12-11T18:04:18.399Z,2.80
2022-12-11T18:06:47.797Z,2.81
2022-12-11T18:09:16.916Z,2.73
2022-12-11T18:11:46.616Z,2.78
2022-12-11T18:14:17.592Z,2.86
2022-12-11T18:16:48.836Z,2.81
2022-12-11T18:19:19.497Z,2.82
2022-12-11T18:21:49.017Z,2.88
2022-12-11T18:24:18.174Z,2.93
2022-12-11T18:26:47.741Z,2.92
2022-12-11T18:29:16.917Z,2.84
2022-12-11T18:31:46.468Z,2.68
2022-12-11T18:34:17.251Z,2.65
2022-12-11T18:36:46.683Z,2.76
2022-12-11T18:39:16.006Z,2.66
2022-12-11T18:41:53.871Z,2.82
2022-12-11T18:44:33.258Z,2.78
2022-12-11T18:47:02.713Z,2.85
2022-12-11T18:49:33.278Z,2.82
2022-12-11T18:52:03.456Z,2.78
2022-12-11T18:54:32.694Z,2.75
2022-12-11T18:57:02.436Z,2.84
2022-12-11T18:59:31.768Z,2.90
2022-12-11T19:02:01.766Z,2.77
2022-12-11T19:04:32.337Z,2.78
2022-12-11T19:07:02.306Z,2.75
2022-12-11T19:09:35.410Z,2.83
2022-12-11T19:12:07.959Z,2.79
2022-12-11T19:14:37.211Z,2.70
2022-12-11T19:17:06.674Z,2.76
2022-12-11T19:19:37.157Z,2.95
2022-12-11T19:22:10.564Z,2.83
2022-12-11T19:24:40.021Z,2.81
2022-12-11T19:27:13.528Z,2.82
2022-12-11T19:29:43.109Z,2.71
2022-12-11T19:32:12.470Z,2.83
2022-12-11T19:34:43.068Z,2.87
2022-12-11T19:37:14.066Z,2.79
2022-12-11T19:39:43.218Z,3.02
2022-12-11T19:42:14.777Z,2.94
2022-12-11T19:44:44.235Z,3.08
2022-12-11T19:47:14.099Z,3.05
2022-12-11T19:49:44.603Z,2.87
2022-12-11T19:52:14.436Z,2.99
2022-12-11T19:54:43.488Z,2.90
2022-12-11T19:57:12.959Z,3.01
2022-12-11T19:59:42.040Z,2.93
2022-12-11T20:02:12.359Z,2.99
2022-12-11T20:04:44.255Z,2.97
2022-12-11T20:07:13.809Z,3.05
2022-12-11T20:09:43.000Z,3.06
2022-12-11T20:12:12.711Z,3.04
2022-12-11T20:14:42.327Z,3.05
2022-12-11T20:17:14.488Z,2.95
2022-12-11T20:19:45.407Z,2.91
2022-12-11T20:22:15.008Z,2.98
2022-12-11T20:24:45.025Z,3.05
2022-12-11T20:27:14.574Z,3.06
2022-12-11T20:29:43.836Z,2.85
2022-12-11T20:32:13.454Z,2.98
2022-12-11T20:34:43.962Z,2.95
2022-12-11T20:37:13.610Z,3.06
2022-12-11T20:39:42.824Z,2.91
2022-12-11T20:42:12.608Z,3.14
2022-12-11T20:44:47.276Z,3.12
2022-12-11T20:47:20.040Z,3.01
2022-12-11T20:49:51.392Z,2.93
2022-12-11T20:52:21.261Z,2.95
2022-12-11T20:54:50.337Z,3.03
2022-12-11T20:57:19.791Z,3.03
2022-12-11T20:59:49.651Z,2.96
2022-12-11T21:02:19.160Z,2.97
2022-12-11T21:04:50.655Z,3.01
2022-12-11T21:07:20.476Z,2.95
2022-12-11T21:09:49.610Z,2.96
2022-12-11T21:12:19.249Z,2.94
2022-12-11T21:14:48.326Z,3.02
2022-12-11T21:17:17.868Z,3.11
2022-12-11T21:19:47.140Z,3.20
2022-12-11T21:22:17.947Z,3.05
2022-12-11T21:24:47.297Z,3.04
2022-12-11T21:27:16.772Z,3.03
2022-12-11T21:29:45.779Z,3.02
2022-12-11T21:32:15.202Z,3.06
2022-12-11T21:34:44.308Z,3.03
2022-12-11T21:37:13.677Z,3.01
2022-12-11T21:39:44.094Z,3.03
2022-12-11T21:42:13.411Z,2.98
2022-12-11T21:47:32.224Z,3.05
2022-12-11T21:50:01.368Z,3.16
2022-12-11T21:52:31.141Z,3.14
2022-12-11T21:55:01.647Z,3.09
2022-12-11T21:57:30.980Z,2.98
2022-12-11T22:00:00.913Z,3.00
2022-12-11T22:02:30.428Z,3.08
2022-12-11T22:05:01.838Z,2.94
2022-12-11T22:07:31.212Z,2.85
2022-12-11T22:10:01.676Z,2.84
2022-12-11T22:12:31.234Z,2.93
2022-12-11T22:15:00.403Z,2.87
2022-12-11T22:17:29.846Z,2.89
2022-12-11T22:19:58.909Z,2.94
2022-12-11T22:22:28.196Z,2.98
2022-12-11T22:24:57.634Z,2.98
2022-12-11T22:27:28.480Z,2.93
2022-12-11T22:29:57.671Z,2.95
2022-12-11T22:32:27.547Z,2.93
2022-12-11T22:34:57.885Z,2.87
2022-12-11T22:37:27.688Z,3.03
2022-12-11T22:39:57.429Z,3.05
2022-12-11T22:42:28.353Z,3.13
2022-12-11T22:44:57.470Z,2.94
2022-12-11T22:47:27.356Z,3.03
2022-12-11T22:49:56.504Z,3.15
2022-12-11T22:52:25.917Z,3.13
2022-12-11T22:54:55.055Z,3.09
2022-12-11T22:57:24.467Z,3.13
2022-12-11T22:59:55.015Z,3.24
2022-12-11T23:02:24.743Z,3.26
2022-12-11T23:04:53.901Z,3.26
2022-12-11T23:07:23.526Z,3.24
2022-12-11T23:09:52.653Z,3.30
2022-12-11T23:12:23.612Z,3.28
2022-12-11T23:14:54.071Z,3.36
2022-12-11T23:17:23.463Z,3.30
2022-12-11T23:19:52.667Z,3.17
2022-12-11T23:22:22.034Z,3.18
2022-12-11T23:24:51.219Z,3.41
2022-12-11T23:27:20.633Z,3.38
2022-12-11T23:29:49.752Z,3.30
2022-12-11T23:32:20.565Z,3.46
2022-12-11T23:34:50.502Z,3.42
2022-12-11T23:37:19.781Z,3.41
2022-12-11T23:39:49.042Z,3.39
2022-12-11T23:42:18.393Z,3.36
2022-12-11T23:44:47.750Z,3.47
2022-12-11T23:47:17.296Z,3.28
2022-12-11T23:49:47.689Z,3.17
2022-12-11T23:52:17.017Z,3.15
2022-12-11T23:54:46.527Z,3.20
2022-12-11T23:57:16.030Z,3.21
2022-12-11T23:59:45.128Z,3.21
